sensor_id;sensor_type;location;lat;lon;timestamp;pressure;altitude;pressure_sealevel;temperature;humidity
24160;BME280;62385;41.594;23.808;2023-03-31T00:01:27;95657.78;;;8.16;53.71
24160;BME280;62385;41.594;23.808;2023-03-31T00:03:53;95652.53;;;8.34;52.44
24160;BME280;62385;41.594;23.808;2023-03-31T00:06:27;95649.78;;;7.46;55.15
24160;BME280;62385;41.594;23.808;2023-03-31T00:08:52;95653.69;;;7.24;56.05
24160;BME280;62385;41.594;23.808;2023-03-31T00:11:21;95651.97;;;7.32;55.87
24160;BME280;62385;41.594;23.808;2023-03-31T00:13:46;95647.63;;;7.04;56.65
24160;BME280;62385;41.594;23.808;2023-03-31T00:16:12;95646.97;;;7.02;56.82
24160;BME280;62385;41.594;23.808;2023-03-31T00:18:38;95633.28;;;7.16;55.67
24160;BME280;62385;41.594;23.808;2023-03-31T00:21:14;95645.22;;;6.83;56.79
24160;BME280;62385;41.594;23.808;2023-03-31T00:23:57;95636.19;;;6.86;56.94
24160;BME280;62385;41.594;23.808;2023-03-31T00:26:24;95638.94;;;7.21;55.99
24160;BME280;62385;41.594;23.808;2023-03-31T00:28:51;95644.13;;;7.40;55.11
24160;BME280;62385;41.594;23.808;2023-03-31T00:31:18;95631.06;;;7.39;54.98
24160;BME280;62385;41.594;23.808;2023-03-31T00:33:43;95644.56;;;7.09;55.91
24160;BME280;62385;41.594;23.808;2023-03-31T00:36:09;95639.53;;;7.15;55.82
24160;BME280;62385;41.594;23.808;2023-03-31T00:38:35;95630.31;;;6.92;56.33
24160;BME280;62385;41.594;23.808;2023-03-31T00:41:01;95631.66;;;7.33;55.94
24160;BME280;62385;41.594;23.808;2023-03-31T00:43:35;95639.13;;;7.37;55.30
24160;BME280;62385;41.594;23.808;2023-03-31T00:46:15;95628.94;;;6.88;56.53
24160;BME280;62385;41.594;23.808;2023-03-31T00:48:48;95624.78;;;6.95;56.88
24160;BME280;62385;41.594;23.808;2023-03-31T00:51:15;95626.16;;;6.99;55.99
24160;BME280;62385;41.594;23.808;2023-03-31T00:53:41;95619.88;;;7.72;54.18
24160;BME280;62385;41.594;23.808;2023-03-31T00:56:15;95628.81;;;8.07;52.91
24160;BME280;62385;41.594;23.808;2023-03-31T00:58:43;95624.63;;;7.69;53.91
24160;BME280;62385;41.594;23.808;2023-03-31T01:01:12;95622.91;;;7.32;55.18
24160;BME280;62385;41.594;23.808;2023-03-31T01:03:40;95617.53;;;7.24;55.50
24160;BME280;62385;41.594;23.808;2023-03-31T01:06:07;95606.28;;;7.22;55.65
24160;BME280;62385;41.594;23.808;2023-03-31T01:08:36;95607.13;;;7.23;55.86
24160;BME280;62385;41.594;23.808;2023-03-31T01:11:05;95616.06;;;6.85;57.03
24160;BME280;62385;41.594;23.808;2023-03-31T01:13:36;95607.50;;;6.73;57.13
24160;BME280;62385;41.594;23.808;2023-03-31T01:16:02;95604.97;;;6.81;56.33
24160;BME280;62385;41.594;23.808;2023-03-31T01:18:29;95602.06;;;6.75;56.87
24160;BME280;62385;41.594;23.808;2023-03-31T01:32:45;95592.13;;;6.59;57.72
24160;BME280;62385;41.594;23.808;2023-03-31T01:41:33;95584.50;;;6.46;57.92
24160;BME280;62385;41.594;23.808;2023-03-31T01:46:53;95579.75;;;6.60;56.92
24160;BME280;62385;41.594;23.808;2023-03-31T01:50:03;95589.47;;;6.59;57.83
24160;BME280;62385;41.594;23.808;2023-03-31T01:52:45;95586.91;;;6.40;58.01
24160;BME280;62385;41.594;23.808;2023-03-31T01:55:55;95596.09;;;6.26;58.39
24160;BME280;62385;41.594;23.808;2023-03-31T01:58:31;95583.31;;;6.22;58.31
24160;BME280;62385;41.594;23.808;2023-03-31T02:01:03;95591.09;;;6.23;58.10
24160;BME280;62385;41.594;23.808;2023-03-31T02:03:37;95592.47;;;6.27;58.57
24160;BME280;62385;41.594;23.808;2023-03-31T02:06:09;95592.47;;;6.27;58.18
24160;BME280;62385;41.594;23.808;2023-03-31T02:08:47;95581.84;;;6.00;58.92
24160;BME280;62385;41.594;23.808;2023-03-31T02:11:15;95581.41;;;5.85;60.11
24160;BME280;62385;41.594;23.808;2023-03-31T02:13:44;95577.13;;;5.94;59.61
24160;BME280;62385;41.594;23.808;2023-03-31T02:16:15;95574.34;;;5.86;59.38
24160;BME280;62385;41.594;23.808;2023-03-31T02:18:45;95576.97;;;5.76;60.18
24160;BME280;62385;41.594;23.808;2023-03-31T02:21:13;95581.69;;;6.11;59.33
24160;BME280;62385;41.594;23.808;2023-03-31T02:23:43;95586.78;;;6.41;57.96
24160;BME280;62385;41.594;23.808;2023-03-31T02:26:23;95573.97;;;6.46;58.13
24160;BME280;62385;41.594;23.808;2023-03-31T02:28:51;95573.66;;;6.59;57.93
24160;BME280;62385;41.594;23.808;2023-03-31T02:31:25;95572.69;;;6.60;57.71
24160;BME280;62385;41.594;23.808;2023-03-31T02:33:53;95576.03;;;6.53;58.26
24160;BME280;62385;41.594;23.808;2023-03-31T02:36:19;95582.22;;;6.24;59.40
24160;BME280;62385;41.594;23.808;2023-03-31T02:38:50;95571.50;;;6.35;58.96
24160;BME280;62385;41.594;23.808;2023-03-31T02:41:18;95578.44;;;6.36;58.88
24160;BME280;62385;41.594;23.808;2023-03-31T02:43:43;95572.66;;;6.70;58.14
24160;BME280;62385;41.594;23.808;2023-03-31T02:46:09;95570.22;;;6.86;57.75
24160;BME280;62385;41.594;23.808;2023-03-31T02:48:47;95566.91;;;7.11;57.79
24160;BME280;62385;41.594;23.808;2023-03-31T02:51:39;95576.13;;;6.97;57.50
24160;BME280;62385;41.594;23.808;2023-03-31T03:04:01;95569.66;;;7.55;56.47
24160;BME280;62385;41.594;23.808;2023-03-31T03:06:47;95576.91;;;7.70;56.92
24160;BME280;62385;41.594;23.808;2023-03-31T03:12:16;95574.50;;;7.59;58.64
24160;BME280;62385;41.594;23.808;2023-03-31T03:14:51;95570.13;;;7.68;57.40
24160;BME280;62385;41.594;23.808;2023-03-31T03:17:25;95564.84;;;7.68;57.55
24160;BME280;62385;41.594;23.808;2023-03-31T03:19:55;95560.75;;;7.56;57.99
24160;BME280;62385;41.594;23.808;2023-03-31T03:22:21;95564.09;;;7.58;58.83
24160;BME280;62385;41.594;23.808;2023-03-31T03:24:49;95568.97;;;7.70;59.08
24160;BME280;62385;41.594;23.808;2023-03-31T03:27:15;95565.59;;;7.60;59.70
24160;BME280;62385;41.594;23.808;2023-03-31T03:29:41;95569.00;;;7.53;59.90
24160;BME280;62385;41.594;23.808;2023-03-31T03:32:09;95566.03;;;7.56;60.05
24160;BME280;62385;41.594;23.808;2023-03-31T03:34:35;95569.97;;;7.52;59.89
24160;BME280;62385;41.594;23.808;2023-03-31T03:37:01;95570.75;;;7.62;58.75
24160;BME280;62385;41.594;23.808;2023-03-31T03:39:27;95573.38;;;7.62;59.64
24160;BME280;62385;41.594;23.808;2023-03-31T03:41:53;95578.16;;;7.31;60.40
24160;BME280;62385;41.594;23.808;2023-03-31T03:44:19;95571.34;;;7.11;60.27
24160;BME280;62385;41.594;23.808;2023-03-31T03:46:45;95570.59;;;7.18;60.76
24160;BME280;62385;41.594;23.808;2023-03-31T03:49:29;95560.75;;;7.38;61.37
24160;BME280;62385;41.594;23.808;2023-03-31T03:51:55;95566.63;;;7.50;60.96
24160;BME280;62385;41.594;23.808;2023-03-31T03:54:20;95565.53;;;7.70;60.07
24160;BME280;62385;41.594;23.808;2023-03-31T03:56:46;95565.72;;;7.23;61.45
24160;BME280;62385;41.594;23.808;2023-03-31T03:59:12;95545.81;;;7.02;62.94
24160;BME280;62385;41.594;23.808;2023-03-31T04:01:38;95553.78;;;6.92;62.60
24160;BME280;62385;41.594;23.808;2023-03-31T04:04:04;95543.94;;;7.57;62.10
24160;BME280;62385;41.594;23.808;2023-03-31T04:06:31;95547.94;;;7.61;62.76
24160;BME280;62385;41.594;23.808;2023-03-31T04:08:56;95547.94;;;7.61;62.66
24160;BME280;62385;41.594;23.808;2023-03-31T04:11:22;95532.59;;;7.47;63.18
24160;BME280;62385;41.594;23.808;2023-03-31T04:13:48;95529.19;;;7.54;63.85
24160;BME280;62385;41.594;23.808;2023-03-31T04:16:14;95525.44;;;7.39;64.31
24160;BME280;62385;41.594;23.808;2023-03-31T04:18:41;95505.03;;;7.14;65.55
24160;BME280;62385;41.594;23.808;2023-03-31T04:21:14;95501.88;;;7.10;65.50
24160;BME280;62385;41.594;23.808;2023-03-31T04:23:48;95513.28;;;7.11;65.43
24160;BME280;62385;41.594;23.808;2023-03-31T04:26:16;95514.28;;;7.00;65.50
24160;BME280;62385;41.594;23.808;2023-03-31T04:28:43;95511.25;;;7.22;65.35
24160;BME280;62385;41.594;23.808;2023-03-31T04:31:13;95520.28;;;7.37;64.54
24160;BME280;62385;41.594;23.808;2023-03-31T04:33:52;95512.38;;;7.20;64.39
24160;BME280;62385;41.594;23.808;2023-03-31T04:36:18;95513.72;;;7.06;65.10
24160;BME280;62385;41.594;23.808;2023-03-31T04:38:46;95516.22;;;7.08;65.29
24160;BME280;62385;41.594;23.808;2023-03-31T04:41:13;95503.66;;;6.92;64.92
24160;BME280;62385;41.594;23.808;2023-03-31T04:43:39;95517.53;;;6.94;64.85
24160;BME280;62385;41.594;23.808;2023-03-31T04:46:04;95528.19;;;7.02;64.90
24160;BME280;62385;41.594;23.808;2023-03-31T04:48:30;95517.63;;;7.02;64.83
24160;BME280;62385;41.594;23.808;2023-03-31T04:50:56;95516.78;;;7.02;64.60
24160;BME280;62385;41.594;23.808;2023-03-31T04:53:21;95511.19;;;6.87;64.07
24160;BME280;62385;41.594;23.808;2023-03-31T04:55:48;95522.69;;;7.13;63.41
24160;BME280;62385;41.594;23.808;2023-03-31T04:58:14;95505.88;;;7.14;63.42
24160;BME280;62385;41.594;23.808;2023-03-31T05:00:40;95524.06;;;7.17;63.17
24160;BME280;62385;41.594;23.808;2023-03-31T05:03:07;95521.34;;;7.27;61.39
24160;BME280;62385;41.594;23.808;2023-03-31T05:05:34;95513.50;;;7.00;62.52
24160;BME280;62385;41.594;23.808;2023-03-31T05:08:02;95518.25;;;7.14;62.56
24160;BME280;62385;41.594;23.808;2023-03-31T05:10:29;95522.09;;;6.74;63.29
24160;BME280;62385;41.594;23.808;2023-03-31T05:12:55;95510.09;;;7.25;62.00
24160;BME280;62385;41.594;23.808;2023-03-31T05:15:20;95529.72;;;7.22;62.61
24160;BME280;62385;41.594;23.808;2023-03-31T05:17:47;95530.41;;;7.60;61.25
24160;BME280;62385;41.594;23.808;2023-03-31T05:20:13;95527.31;;;7.47;61.54
24160;BME280;62385;41.594;23.808;2023-03-31T05:22:39;95520.44;;;7.54;61.88
24160;BME280;62385;41.594;23.808;2023-03-31T05:25:07;95523.00;;;7.63;61.67
24160;BME280;62385;41.594;23.808;2023-03-31T05:27:34;95511.63;;;7.45;62.20
24160;BME280;62385;41.594;23.808;2023-03-31T05:30:00;95514.94;;;7.29;63.13
24160;BME280;62385;41.594;23.808;2023-03-31T05:32:26;95509.59;;;7.57;61.81
24160;BME280;62385;41.594;23.808;2023-03-31T05:34:52;95505.34;;;7.64;61.93
24160;BME280;62385;41.594;23.808;2023-03-31T05:37:22;95503.34;;;7.58;62.80
24160;BME280;62385;41.594;23.808;2023-03-31T05:39:49;95497.50;;;7.72;62.29
24160;BME280;62385;41.594;23.808;2023-03-31T05:42:14;95485.41;;;8.13;60.89
24160;BME280;62385;41.594;23.808;2023-03-31T05:44:40;95481.16;;;8.46;59.54
24160;BME280;62385;41.594;23.808;2023-03-31T05:47:06;95487.53;;;8.61;58.30
24160;BME280;62385;41.594;23.808;2023-03-31T05:49:32;95471.56;;;8.95;57.93
24160;BME280;62385;41.594;23.808;2023-03-31T05:51:57;95477.38;;;8.90;57.89
24160;BME280;62385;41.594;23.808;2023-03-31T05:54:23;95477.66;;;8.79;58.01
24160;BME280;62385;41.594;23.808;2023-03-31T05:56:49;95475.34;;;8.84;58.43
24160;BME280;62385;41.594;23.808;2023-03-31T05:59:14;95481.50;;;8.93;58.22
24160;BME280;62385;41.594;23.808;2023-03-31T06:01:40;95473.16;;;9.30;57.82
24160;BME280;62385;41.594;23.808;2023-03-31T06:04:06;95468.16;;;9.10;58.65
24160;BME280;62385;41.594;23.808;2023-03-31T06:06:31;95475.63;;;9.23;57.06
24160;BME280;62385;41.594;23.808;2023-03-31T06:09:04;95474.13;;;9.28;55.76
24160;BME280;62385;41.594;23.808;2023-03-31T06:11:30;95468.69;;;9.22;55.81
24160;BME280;62385;41.594;23.808;2023-03-31T06:13:56;95454.09;;;9.10;54.76
24160;BME280;62385;41.594;23.808;2023-03-31T06:16:22;95452.94;;;9.28;55.23
24160;BME280;62385;41.594;23.808;2023-03-31T06:18:47;95449.66;;;9.26;55.50
24160;BME280;62385;41.594;23.808;2023-03-31T06:21:16;95452.31;;;9.26;56.46
24160;BME280;62385;41.594;23.808;2023-03-31T06:23:44;95449.00;;;9.65;54.87
24160;BME280;62385;41.594;23.808;2023-03-31T06:26:15;95446.69;;;9.54;55.19
24160;BME280;62385;41.594;23.808;2023-03-31T06:28:42;95444.72;;;9.72;55.00
24160;BME280;62385;41.594;23.808;2023-03-31T06:31:10;95434.38;;;10.26;54.76
24160;BME280;62385;41.594;23.808;2023-03-31T06:33:37;95438.53;;;9.96;55.31
24160;BME280;62385;41.594;23.808;2023-03-31T06:36:04;95419.84;;;9.89;54.53
24160;BME280;62385;41.594;23.808;2023-03-31T06:38:33;95438.06;;;9.84;54.98
24160;BME280;62385;41.594;23.808;2023-03-31T06:40:59;95441.69;;;9.91;54.49
24160;BME280;62385;41.594;23.808;2023-03-31T06:43:25;95436.19;;;10.09;54.09
24160;BME280;62385;41.594;23.808;2023-03-31T06:45:54;95437.13;;;10.40;52.75
24160;BME280;62385;41.594;23.808;2023-03-31T06:48:21;95446.56;;;10.51;52.79
24160;BME280;62385;41.594;23.808;2023-03-31T06:50:46;95453.75;;;10.34;52.58
24160;BME280;62385;41.594;23.808;2023-03-31T06:53:12;95444.28;;;10.32;51.59
24160;BME280;62385;41.594;23.808;2023-03-31T06:55:37;95443.41;;;10.55;50.81
24160;BME280;62385;41.594;23.808;2023-03-31T06:58:04;95441.66;;;11.09;49.71
24160;BME280;62385;41.594;23.808;2023-03-31T07:00:31;95432.31;;;10.83;50.61
24160;BME280;62385;41.594;23.808;2023-03-31T07:02:58;95434.56;;;10.00;52.79
24160;BME280;62385;41.594;23.808;2023-03-31T07:05:24;95418.66;;;10.63;51.94
24160;BME280;62385;41.594;23.808;2023-03-31T07:07:54;95416.47;;;10.97;51.12
24160;BME280;62385;41.594;23.808;2023-03-31T07:10:21;95421.13;;;10.95;50.66
24160;BME280;62385;41.594;23.808;2023-03-31T07:12:47;95404.09;;;11.58;49.72
24160;BME280;62385;41.594;23.808;2023-03-31T07:15:13;95400.19;;;11.69;49.72
24160;BME280;62385;41.594;23.808;2023-03-31T07:17:39;95400.44;;;11.59;49.68
24160;BME280;62385;41.594;23.808;2023-03-31T07:20:13;95400.50;;;11.74;49.38
24160;BME280;62385;41.594;23.808;2023-03-31T07:22:40;95393.19;;;12.05;49.45
24160;BME280;62385;41.594;23.808;2023-03-31T07:25:11;95395.00;;;11.75;49.79
24160;BME280;62385;41.594;23.808;2023-03-31T07:27:37;95385.13;;;11.98;48.98
24160;BME280;62385;41.594;23.808;2023-03-31T07:30:07;95383.13;;;12.15;49.44
24160;BME280;62385;41.594;23.808;2023-03-31T07:32:33;95383.13;;;12.44;48.74
24160;BME280;62385;41.594;23.808;2023-03-31T07:35:04;95384.22;;;12.35;48.25
24160;BME280;62385;41.594;23.808;2023-03-31T07:37:41;95379.72;;;12.07;48.88
24160;BME280;62385;41.594;23.808;2023-03-31T07:40:11;95382.56;;;12.34;47.74
24160;BME280;62385;41.594;23.808;2023-03-31T07:42:40;95364.25;;;12.25;48.45
24160;BME280;62385;41.594;23.808;2023-03-31T07:45:07;95362.41;;;11.96;49.20
24160;BME280;62385;41.594;23.808;2023-03-31T07:47:33;95353.22;;;12.28;47.73
24160;BME280;62385;41.594;23.808;2023-03-31T07:49:58;95353.09;;;12.65;46.34
24160;BME280;62385;41.594;23.808;2023-03-31T07:52:24;95354.69;;;12.81;45.58
24160;BME280;62385;41.594;23.808;2023-03-31T07:54:50;95350.63;;;13.00;45.23
24160;BME280;62385;41.594;23.808;2023-03-31T07:57:16;95354.97;;;12.71;46.65
24160;BME280;62385;41.594;23.808;2023-03-31T07:59:47;95349.75;;;13.14;45.79
24160;BME280;62385;41.594;23.808;2023-03-31T08:02:15;95349.41;;;13.17;45.70
24160;BME280;62385;41.594;23.808;2023-03-31T08:04:41;95338.91;;;13.01;46.38
24160;BME280;62385;41.594;23.808;2023-03-31T08:07:08;95331.25;;;13.55;44.75
24160;BME280;62385;41.594;23.808;2023-03-31T08:09:34;95317.78;;;13.14;45.82
24160;BME280;62385;41.594;23.808;2023-03-31T08:12:00;95321.69;;;13.18;46.46
24160;BME280;62385;41.594;23.808;2023-03-31T08:14:26;95306.75;;;13.66;45.17
24160;BME280;62385;41.594;23.808;2023-03-31T08:16:52;95303.28;;;13.72;44.10
24160;BME280;62385;41.594;23.808;2023-03-31T08:19:20;95309.75;;;13.35;43.83
24160;BME280;62385;41.594;23.808;2023-03-31T08:21:47;95301.94;;;13.82;42.13
24160;BME280;62385;41.594;23.808;2023-03-31T08:24:13;95296.59;;;14.17;43.43
24160;BME280;62385;41.594;23.808;2023-03-31T08:26:40;95294.63;;;13.98;43.75
24160;BME280;62385;41.594;23.808;2023-03-31T08:29:06;95292.22;;;14.03;42.74
24160;BME280;62385;41.594;23.808;2023-03-31T08:31:32;95292.91;;;14.18;42.06
24160;BME280;62385;41.594;23.808;2023-03-31T08:33:57;95287.06;;;14.36;41.44
24160;BME280;62385;41.594;23.808;2023-03-31T08:36:25;95282.69;;;14.69;41.86
24160;BME280;62385;41.594;23.808;2023-03-31T08:38:51;95268.34;;;14.90;42.51
24160;BME280;62385;41.594;23.808;2023-03-31T08:42:14;95263.88;;;15.36;41.40
24160;BME280;62385;41.594;23.808;2023-03-31T08:45:01;95260.50;;;14.82;41.51
24160;BME280;62385;41.594;23.808;2023-03-31T08:47:30;95257.47;;;15.24;41.73
24160;BME280;62385;41.594;23.808;2023-03-31T08:50:02;95242.03;;;15.13;40.67
24160;BME280;62385;41.594;23.808;2023-03-31T08:52:37;95246.00;;;15.56;40.24
24160;BME280;62385;41.594;23.808;2023-03-31T08:55:09;95241.22;;;15.39;40.68
24160;BME280;62385;41.594;23.808;2023-03-31T08:57:45;95236.94;;;15.51;40.83
24160;BME280;62385;41.594;23.808;2023-03-31T09:00:16;95231.38;;;15.59;40.71
24160;BME280;62385;41.594;23.808;2023-03-31T09:02:53;95225.59;;;15.42;41.02
24160;BME280;62385;41.594;23.808;2023-03-31T09:05:43;95229.13;;;15.56;41.47
24160;BME280;62385;41.594;23.808;2023-03-31T09:16:11;95203.38;;;15.42;41.17
24160;BME280;62385;41.594;23.808;2023-03-31T09:18:39;95209.34;;;15.63;41.40
24160;BME280;62385;41.594;23.808;2023-03-31T09:21:32;95198.59;;;15.90;40.82
24160;BME280;62385;41.594;23.808;2023-03-31T09:26:54;95193.81;;;15.92;40.48
24160;BME280;62385;41.594;23.808;2023-03-31T09:29:26;95189.03;;;16.07;40.35
24160;BME280;62385;41.594;23.808;2023-03-31T09:31:59;95187.41;;;16.50;40.17
24160;BME280;62385;41.594;23.808;2023-03-31T09:34:31;95179.31;;;16.64;39.07
24160;BME280;62385;41.594;23.808;2023-03-31T09:36:59;95173.25;;;16.37;39.18
24160;BME280;62385;41.594;23.808;2023-03-31T09:39:24;95168.59;;;16.64;38.85
24160;BME280;62385;41.594;23.808;2023-03-31T09:41:51;95161.00;;;16.54;37.96
24160;BME280;62385;41.594;23.808;2023-03-31T09:44:39;95155.91;;;16.77;38.19
24160;BME280;62385;41.594;23.808;2023-03-31T09:47:10;95146.94;;;16.96;36.33
24160;BME280;62385;41.594;23.808;2023-03-31T09:56:52;95134.81;;;17.37;37.32
24160;BME280;62385;41.594;23.808;2023-03-31T10:11:21;95105.53;;;18.68;35.66
24160;BME280;62385;41.594;23.808;2023-03-31T10:18:22;95093.16;;;18.67;35.06
24160;BME280;62385;41.594;23.808;2023-03-31T10:40:30;95051.81;;;18.91;34.65
24160;BME280;62385;41.594;23.808;2023-03-31T10:43:24;95047.13;;;18.75;35.44
24160;BME280;62385;41.594;23.808;2023-03-31T10:45:56;95034.94;;;18.72;34.34
24160;BME280;62385;41.594;23.808;2023-03-31T10:51:20;95025.72;;;19.50;32.63
24160;BME280;62385;41.594;23.808;2023-03-31T10:53:49;95022.34;;;19.19;34.27
24160;BME280;62385;41.594;23.808;2023-03-31T10:56:40;95008.03;;;19.54;32.87
24160;BME280;62385;41.594;23.808;2023-03-31T11:07:45;94990.31;;;19.69;32.91
24160;BME280;62385;41.594;23.808;2023-03-31T11:13:06;94975.28;;;19.45;31.88
24160;BME280;62385;41.594;23.808;2023-03-31T11:23:40;94950.84;;;19.23;32.25
24160;BME280;62385;41.594;23.808;2023-03-31T11:31:44;94935.72;;;20.02;32.58
24160;BME280;62385;41.594;23.808;2023-03-31T11:49:27;94901.28;;;20.54;30.39
24160;BME280;62385;41.594;23.808;2023-03-31T11:52:01;94893.44;;;20.91;28.61
24160;BME280;62385;41.594;23.808;2023-03-31T11:54:33;94896.44;;;21.11;28.83
24160;BME280;62385;41.594;23.808;2023-03-31T11:57:06;94889.84;;;20.64;28.74
24160;BME280;62385;41.594;23.808;2023-03-31T11:59:36;94885.91;;;20.21;29.37
24160;BME280;62385;41.594;23.808;2023-03-31T12:02:16;94876.31;;;20.81;28.72
24160;BME280;62385;41.594;23.808;2023-03-31T12:05:02;94875.53;;;20.47;30.69
24160;BME280;62385;41.594;23.808;2023-03-31T12:07:45;94877.25;;;20.69;30.02
24160;BME280;62385;41.594;23.808;2023-03-31T12:10:19;94881.09;;;20.73;29.97
24160;BME280;62385;41.594;23.808;2023-03-31T12:12:56;94872.44;;;20.55;29.54
24160;BME280;62385;41.594;23.808;2023-03-31T12:15:31;94870.75;;;21.09;31.18
24160;BME280;62385;41.594;23.808;2023-03-31T12:24:43;94861.09;;;20.36;29.49
24160;BME280;62385;41.594;23.808;2023-03-31T12:27:44;94856.31;;;20.60;30.21
24160;BME280;62385;41.594;23.808;2023-03-31T12:30:31;94851.28;;;20.47;31.79
24160;BME280;62385;41.594;23.808;2023-03-31T12:45:26;94829.53;;;20.53;31.19
24160;BME280;62385;41.594;23.808;2023-03-31T12:57:38;94828.97;;;20.18;31.90
24160;BME280;62385;41.594;23.808;2023-03-31T13:00:20;94825.06;;;20.81;31.11
24160;BME280;62385;41.594;23.808;2023-03-31T13:06:44;94815.34;;;19.74;33.06
24160;BME280;62385;41.594;23.808;2023-03-31T13:14:19;94811.94;;;19.51;32.98
24160;BME280;62385;41.594;23.808;2023-03-31T13:16:47;94804.91;;;19.05;33.07
24160;BME280;62385;41.594;23.808;2023-03-31T13:19:40;94798.59;;;20.39;32.78
24160;BME280;62385;41.594;23.808;2023-03-31T13:22:28;94784.38;;;20.44;32.67
24160;BME280;62385;41.594;23.808;2023-03-31T13:25:34;94791.06;;;20.58;31.76
24160;BME280;62385;41.594;23.808;2023-03-31T13:31:06;94788.97;;;20.65;30.72
24160;BME280;62385;41.594;23.808;2023-03-31T13:33:56;94779.38;;;20.74;30.81
24160;BME280;62385;41.594;23.808;2023-03-31T13:36:38;94779.59;;;20.29;29.78
24160;BME280;62385;41.594;23.808;2023-03-31T13:51:57;94753.06;;;19.71;30.67
24160;BME280;62385;41.594;23.808;2023-03-31T13:59:57;94745.00;;;19.88;31.39
24160;BME280;62385;41.594;23.808;2023-03-31T14:11:27;94731.06;;;20.51;29.52
24160;BME280;62385;41.594;23.808;2023-03-31T14:14:12;94727.59;;;20.99;28.17
24160;BME280;62385;41.594;23.808;2023-03-31T14:16:49;94722.91;;;20.89;30.17
24160;BME280;62385;41.594;23.808;2023-03-31T14:19:55;94730.38;;;20.60;29.30
24160;BME280;62385;41.594;23.808;2023-03-31T14:22:43;94726.19;;;20.69;29.50
24160;BME280;62385;41.594;23.808;2023-03-31T14:25:58;94709.78;;;20.98;29.30
24160;BME280;62385;41.594;23.808;2023-03-31T14:28:41;94717.38;;;20.79;28.17
24160;BME280;62385;41.594;23.808;2023-03-31T14:31:34;94721.91;;;20.73;29.35
24160;BME280;62385;41.594;23.808;2023-03-31T14:37:22;94713.63;;;19.81;31.03
24160;BME280;62385;41.594;23.808;2023-03-31T14:39:51;94707.41;;;19.98;30.36
24160;BME280;62385;41.594;23.808;2023-03-31T14:42:37;94717.03;;;19.94;30.52
24160;BME280;62385;41.594;23.808;2023-03-31T14:45:29;94729.09;;;20.24;29.57
24160;BME280;62385;41.594;23.808;2023-03-31T14:47:58;94720.59;;;20.76;27.21
24160;BME280;62385;41.594;23.808;2023-03-31T14:50:34;94714.03;;;19.90;29.49
24160;BME280;62385;41.594;23.808;2023-03-31T14:53:00;94730.75;;;19.75;29.19
24160;BME280;62385;41.594;23.808;2023-03-31T14:55:30;94718.06;;;19.71;29.50
24160;BME280;62385;41.594;23.808;2023-03-31T14:57:58;94709.56;;;19.17;30.13
24160;BME280;62385;41.594;23.808;2023-03-31T15:00:32;94722.78;;;19.02;29.84
24160;BME280;62385;41.594;23.808;2023-03-31T15:03:01;94723.00;;;19.29;29.45
24160;BME280;62385;41.594;23.808;2023-03-31T15:05:36;94716.19;;;19.26;29.94
24160;BME280;62385;41.594;23.808;2023-03-31T15:08:21;94737.81;;;19.31;29.75
24160;BME280;62385;41.594;23.808;2023-03-31T15:10:51;94728.44;;;19.62;29.55
24160;BME280;62385;41.594;23.808;2023-03-31T15:13:40;94729.69;;;18.98;30.00
24160;BME280;62385;41.594;23.808;2023-03-31T15:16:44;94723.44;;;19.09;29.32
24160;BME280;62385;41.594;23.808;2023-03-31T15:19:21;94727.81;;;19.94;28.49
24160;BME280;62385;41.594;23.808;2023-03-31T15:22:14;94724.47;;;21.34;27.04
24160;BME280;62385;41.594;23.808;2023-03-31T15:25:02;94726.44;;;20.68;27.84
24160;BME280;62385;41.594;23.808;2023-03-31T15:27:37;94716.19;;;21.45;27.26
24160;BME280;62385;41.594;23.808;2023-03-31T15:30:08;94715.16;;;21.20;27.33
24160;BME280;62385;41.594;23.808;2023-03-31T15:32:39;94708.78;;;21.09;27.25
24160;BME280;62385;41.594;23.808;2023-03-31T15:35:06;94710.31;;;20.73;27.69
24160;BME280;62385;41.594;23.808;2023-03-31T15:37:42;94719.63;;;21.36;27.04
24160;BME280;62385;41.594;23.808;2023-03-31T15:42:44;94718.69;;;20.98;27.13
24160;BME280;62385;41.594;23.808;2023-03-31T15:47:50;94721.34;;;20.71;27.42
24160;BME280;62385;41.594;23.808;2023-03-31T15:50:20;94720.34;;;21.04;27.30
24160;BME280;62385;41.594;23.808;2023-03-31T15:52:49;94720.72;;;20.43;27.74
24160;BME280;62385;41.594;23.808;2023-03-31T15:55:29;94720.22;;;20.46;28.16
24160;BME280;62385;41.594;23.808;2023-03-31T15:57:57;94719.91;;;20.64;27.69
24160;BME280;62385;41.594;23.808;2023-03-31T16:03:25;94719.91;;;19.37;28.33
24160;BME280;62385;41.594;23.808;2023-03-31T16:05:58;94725.53;;;20.02;28.86
24160;BME280;62385;41.594;23.808;2023-03-31T16:08:47;94734.66;;;20.01;28.04
24160;BME280;62385;41.594;23.808;2023-03-31T16:11:43;94737.91;;;19.20;29.50
24160;BME280;62385;41.594;23.808;2023-03-31T16:17:00;94732.94;;;18.72;29.66
24160;BME280;62385;41.594;23.808;2023-03-31T16:19:30;94733.13;;;19.10;29.41
24160;BME280;62385;41.594;23.808;2023-03-31T16:22:03;94731.78;;;19.24;29.45
24160;BME280;62385;41.594;23.808;2023-03-31T16:24:33;94733.53;;;19.02;29.32
24160;BME280;62385;41.594;23.808;2023-03-31T16:27:02;94736.06;;;18.92;29.42
24160;BME280;62385;41.594;23.808;2023-03-31T16:29:32;94727.50;;;18.95;29.11
24160;BME280;62385;41.594;23.808;2023-03-31T16:34:54;94728.16;;;19.02;28.47
24160;BME280;62385;41.594;23.808;2023-03-31T16:37:22;94734.72;;;18.66;29.39
24160;BME280;62385;41.594;23.808;2023-03-31T16:39:48;94735.22;;;18.63;29.69
24160;BME280;62385;41.594;23.808;2023-03-31T16:42:14;94736.66;;;18.54;29.58
24160;BME280;62385;41.594;23.808;2023-03-31T16:44:40;94743.06;;;18.41;30.71
24160;BME280;62385;41.594;23.808;2023-03-31T16:47:06;94738.25;;;18.43;29.78
24160;BME280;62385;41.594;23.808;2023-03-31T16:49:31;94744.94;;;18.53;29.55
24160;BME280;62385;41.594;23.808;2023-03-31T16:51:57;94741.63;;;17.76;31.59
24160;BME280;62385;41.594;23.808;2023-03-31T16:54:22;94758.38;;;16.77;34.48